Time;durP1;ratioP1;P1;durP2;ratioP2;P2;SDS_P1;SDS_P2;PMS_P1;PMS_P2;Temp;Humidity;BMP_temperature;BMP_pressure;BME280_temperature;BME280_humidity;BME280_pressure;Samples;Min_cycle;Max_cycle;Signal;HPM_P1;HPM_P2
2023/09/15 00:02:20;;;;;;;11.37;7.63;;;15.20;99.90;;;;;;5069109;28;20452;-85
2023/09/15 00:04:48;;;;;;;9.87;8.97;;;15.10;99.90;;;;;;5061382;28;20479;-87
2023/09/15 00:07:16;;;;;;;10.30;9.30;;;15.10;99.90;;;;;;5058852;28;20487;-86
2023/09/15 00:09:43;;;;;;;16.03;8.37;;;15.10;99.90;;;;;;5066354;28;20854;-85
2023/09/15 00:12:10;;;;;;;11.70;9.63;;;15.10;99.90;;;;;;5064607;28;20550;-85
2023/09/15 00:14:38;;;;;;;11.60;8.63;;;15.10;99.90;;;;;;5061366;28;20465;-86
2023/09/15 00:17:05;;;;;;;10.27;9.20;;;15.10;99.90;;;;;;5067720;28;20560;-86
2023/09/15 00:19:32;;;;;;;11.30;8.67;;;15.10;99.90;;;;;;5067104;28;20469;-87
2023/09/15 00:22:01;;;;;;;9.13;8.20;;;15.10;99.90;;;;;;5063078;28;21166;-86
2023/09/15 00:24:28;;;;;;;9.73;8.53;;;15.00;99.90;;;;;;5068108;28;20456;-87
2023/09/15 00:26:55;;;;;;;11.10;9.93;;;15.00;99.90;;;;;;5067750;28;20445;-86
2023/09/15 00:29:22;;;;;;;15.60;9.07;;;14.90;99.90;;;;;;5063420;28;20489;-86
2023/09/15 00:31:49;;;;;;;10.37;8.97;;;14.90;99.90;;;;;;5085388;28;20457;-85
2023/09/15 00:34:16;;;;;;;12.50;8.40;;;14.90;99.90;;;;;;5071747;28;20454;-85
2023/09/15 00:36:45;;;;;;;10.27;9.20;;;14.90;99.90;;;;;;5075376;28;20541;-87
2023/09/15 00:39:13;;;;;;;9.60;8.07;;;14.80;99.90;;;;;;5067219;28;21108;-85
2023/09/15 00:41:40;;;;;;;10.47;9.10;;;14.80;99.90;;;;;;5067019;28;20446;-86
2023/09/15 00:44:07;;;;;;;9.97;9.00;;;14.80;99.90;;;;;;5065862;28;20539;-87
2023/09/15 00:46:34;;;;;;;12.60;10.07;;;14.80;99.90;;;;;;5066168;28;20451;-85
2023/09/15 00:49:02;;;;;;;10.23;8.10;;;14.80;99.90;;;;;;5066645;28;21058;-85
2023/09/15 00:51:32;;;;;;;9.73;8.73;;;14.70;99.90;;;;;;5062052;28;20477;-86
2023/09/15 00:53:59;;;;;;;11.93;9.10;;;14.70;99.90;;;;;;5065729;28;20458;-85
2023/09/15 00:56:28;;;;;;;10.47;9.37;;;14.70;99.90;;;;;;5067113;28;20448;-85
2023/09/15 00:58:55;;;;;;;11.07;8.70;;;14.70;99.90;;;;;;5067023;28;20482;-85
2023/09/15 01:01:22;;;;;;;9.40;7.50;;;14.60;99.90;;;;;;5064791;28;20462;-86
2023/09/15 01:03:49;;;;;;;9.70;8.70;;;14.60;99.90;;;;;;5066440;28;20450;-85
2023/09/15 01:06:18;;;;;;;11.87;10.70;;;14.60;99.90;;;;;;5065494;28;20589;-85
2023/09/15 01:08:46;;;;;;;9.77;8.77;;;14.50;99.90;;;;;;5067461;28;20515;-85
2023/09/15 01:11:13;;;;;;;11.87;9.03;;;14.50;99.90;;;;;;5063543;28;20464;-85
2023/09/15 01:13:41;;;;;;;14.93;10.13;;;14.50;99.90;;;;;;5065571;28;20467;-85
2023/09/15 01:16:16;;;;;;;10.77;8.90;;;14.50;99.90;;;;;;5066791;28;20465;-86
2023/09/15 01:18:50;;;;;;;9.77;8.37;;;14.50;99.90;;;;;;5066507;28;20482;-86
2023/09/15 01:21:44;;;;;;;8.57;7.67;;;14.40;99.90;;;;;;5060479;28;20473;-87
2023/09/15 01:24:38;;;;;;;13.83;10.33;;;14.40;99.90;;;;;;5066483;28;20502;-85
2023/09/15 01:27:34;;;;;;;11.27;8.03;;;14.40;99.90;;;;;;5064828;28;20451;-86
2023/09/15 01:30:04;;;;;;;7.57;6.83;;;14.40;99.90;;;;;;5067791;28;20524;-87
2023/09/15 01:32:33;;;;;;;12.87;8.07;;;14.30;99.90;;;;;;5064511;28;20470;-85
2023/09/15 01:35:03;;;;;;;8.60;7.83;;;14.30;99.90;;;;;;5062341;28;20460;-85
2023/09/15 01:37:30;;;;;;;8.07;7.27;;;14.20;99.90;;;;;;5065832;28;20570;-85
2023/09/15 01:39:59;;;;;;;8.57;6.40;;;14.20;99.90;;;;;;5066189;28;20852;-85
2023/09/15 01:42:26;;;;;;;9.40;6.57;;;14.20;99.90;;;;;;5064586;28;20477;-86
2023/09/15 01:44:54;;;;;;;7.63;6.83;;;14.20;99.90;;;;;;5066294;28;20958;-84
2023/09/15 01:47:23;;;;;;;9.20;7.17;;;14.20;99.90;;;;;;5078133;28;20457;-85
2023/09/15 01:50:00;;;;;;;9.80;5.90;;;14.10;99.90;;;;;;5067878;28;20478;-92
2023/09/15 01:52:29;;;;;;;7.67;6.03;;;14.10;99.90;;;;;;5065578;28;20479;-90
2023/09/15 01:54:57;;;;;;;6.10;5.50;;;14.00;99.90;;;;;;5077723;28;20448;-86
2023/09/15 01:57:24;;;;;;;7.90;6.10;;;14.00;99.90;;;;;;5071049;28;20508;-86
2023/09/15 01:59:51;;;;;;;7.20;5.10;;;14.00;99.90;;;;;;5081041;28;20474;-85
2023/09/15 02:02:18;;;;;;;6.50;5.90;;;14.00;99.90;;;;;;5072853;28;20459;-89
2023/09/15 02:04:47;;;;;;;7.60;4.97;;;14.00;99.90;;;;;;5066981;28;20470;-86
2023/09/15 02:07:14;;;;;;;4.33;3.97;;;14.00;99.90;;;;;;5070156;28;20538;-90
2023/09/15 02:09:41;;;;;;;5.47;4.43;;;14.00;99.90;;;;;;5069836;28;20458;-87
2023/09/15 02:12:08;;;;;;;4.60;4.17;;;14.00;99.90;;;;;;5065813;28;20927;-86
2023/09/15 02:14:35;;;;;;;5.40;3.80;;;13.90;99.90;;;;;;5070276;28;20452;-91
2023/09/15 02:17:04;;;;;;;3.93;3.60;;;13.90;99.90;;;;;;5062926;28;20538;-89
2023/09/15 02:19:31;;;;;;;3.60;2.60;;;13.90;99.90;;;;;;5064196;28;20467;-89
2023/09/15 02:21:59;;;;;;;4.10;3.07;;;13.90;99.90;;;;;;5063392;28;20492;-86
2023/09/15 02:24:26;;;;;;;3.13;2.93;;;13.90;99.90;;;;;;5067357;28;20833;-86
2023/09/15 02:26:53;;;;;;;2.97;2.77;;;13.90;99.90;;;;;;5069174;28;20496;-86
2023/09/15 02:29:20;;;;;;;2.97;2.10;;;13.90;99.90;;;;;;5070183;28;20951;-87
2023/09/15 02:31:47;;;;;;;2.83;2.57;;;13.90;99.90;;;;;;5068081;28;20539;-86
2023/09/15 02:34:14;;;;;;;3.53;3.23;;;13.90;99.90;;;;;;5065941;28;20461;-88
2023/09/15 02:36:42;;;;;;;5.10;2.90;;;13.90;99.90;;;;;;5068966;28;20512;-86
2023/09/15 02:39:10;;;;;;;2.53;2.10;;;13.90;99.90;;;;;;5068031;28;20483;-86
2023/09/15 02:41:37;;;;;;;3.33;3.03;;;13.80;99.90;;;;;;5067566;28;20478;-85
2023/09/15 02:44:04;;;;;;;2.87;2.57;;;13.80;99.90;;;;;;5074652;28;20934;-86
2023/09/15 02:46:32;;;;;;;2.27;2.07;;;13.70;99.90;;;;;;5065835;28;20498;-88
2023/09/15 02:49:01;;;;;;;2.73;2.53;;;13.70;99.90;;;;;;5066780;28;20503;-90
2023/09/15 02:51:28;;;;;;;2.47;2.27;;;13.70;99.90;;;;;;5066720;28;20441;-87
2023/09/15 02:53:55;;;;;;;2.80;2.60;;;13.80;99.90;;;;;;5068343;28;21004;-87
2023/09/15 02:56:24;;;;;;;3.00;1.73;;;13.70;99.90;;;;;;5067768;28;20996;-86
2023/09/15 02:58:51;;;;;;;4.47;2.70;;;13.70;99.90;;;;;;5069107;28;20545;-87
2023/09/15 03:01:18;;;;;;;4.50;1.67;;;13.70;99.90;;;;;;5067310;28;20472;-86
2023/09/15 03:03:48;;;;;;;3.97;2.50;;;13.70;99.90;;;;;;5067104;28;21048;-87
2023/09/15 03:06:15;;;;;;;3.33;2.03;;;13.70;99.90;;;;;;5063812;28;20954;-87
2023/09/15 03:08:41;;;;;;;3.50;2.70;;;13.70;99.90;;;;;;5067450;28;21056;-87
2023/09/15 03:11:13;;;;;;;2.50;1.90;;;13.70;99.90;;;;;;5068220;28;20445;-87
2023/09/15 03:13:41;;;;;;;2.90;2.70;;;13.70;99.90;;;;;;5066001;28;20456;-87
2023/09/15 03:16:09;;;;;;;2.00;1.90;;;13.80;99.90;;;;;;5067123;28;20456;-89
2023/09/15 03:18:36;;;;;;;2.00;1.80;;;13.70;99.90;;;;;;5067615;28;20850;-87
2023/09/15 03:21:04;;;;;;;2.23;2.13;;;13.70;99.90;;;;;;5067176;28;20468;-88
2023/09/15 03:23:31;;;;;;;4.73;2.80;;;13.70;99.90;;;;;;5065993;28;20455;-87
2023/09/15 03:26:01;;;;;;;2.83;2.50;;;13.70;99.90;;;;;;5067043;28;20907;-87
2023/09/15 03:28:28;;;;;;;3.30;1.90;;;13.70;99.90;;;;;;5058899;28;20582;-91
2023/09/15 03:30:57;;;;;;;3.33;2.50;;;13.70;99.90;;;;;;5055744;28;20455;-87
2023/09/15 03:33:24;;;;;;;2.77;2.57;;;13.70;99.90;;;;;;5066075;28;20453;-87
2023/09/15 03:35:51;;;;;;;3.33;2.83;;;13.70;99.90;;;;;;5059229;28;20524;-87
2023/09/15 03:38:18;;;;;;;3.83;2.43;;;13.70;99.90;;;;;;5063246;28;20480;-87
2023/09/15 03:40:45;;;;;;;2.60;2.40;;;13.60;99.90;;;;;;5064583;28;20463;-89
2023/09/15 03:43:12;;;;;;;4.03;2.70;;;13.60;99.90;;;;;;5060137;28;20464;-86
2023/09/15 03:45:39;;;;;;;2.50;2.30;;;13.60;99.90;;;;;;5064613;28;20483;-86
2023/09/15 03:48:07;;;;;;;2.93;2.73;;;13.60;99.90;;;;;;5066967;28;20464;-89
2023/09/15 03:50:35;;;;;;;2.97;2.77;;;13.60;99.90;;;;;;5064383;28;21048;-86
2023/09/15 03:53:02;;;;;;;2.80;2.30;;;13.50;99.90;;;;;;5067882;28;20469;-87
2023/09/15 03:55:29;;;;;;;5.33;2.53;;;13.50;99.90;;;;;;5067774;28;20512;-89
2023/09/15 03:57:56;;;;;;;3.20;2.90;;;13.50;99.90;;;;;;5066630;28;20487;-90
2023/09/15 04:00:23;;;;;;;3.10;2.80;;;13.50;99.90;;;;;;5067862;28;20448;-86
2023/09/15 04:02:50;;;;;;;2.63;2.33;;;13.50;99.90;;;;;;5065944;28;20474;-86
2023/09/15 04:05:19;;;;;;;4.63;2.43;;;13.50;99.90;;;;;;5071026;28;20782;-88
2023/09/15 04:07:46;;;;;;;3.80;2.80;;;13.50;99.90;;;;;;5087819;28;20476;-86
2023/09/15 04:10:13;;;;;;;5.23;3.37;;;13.50;99.90;;;;;;5074704;28;20474;-86
2023/09/15 04:12:42;;;;;;;3.53;3.23;;;13.40;99.90;;;;;;5073548;28;20479;-90
2023/09/15 04:15:11;;;;;;;5.37;3.40;;;13.40;99.90;;;;;;5070041;28;20847;-88
2023/09/15 04:17:38;;;;;;;3.30;3.00;;;13.50;99.90;;;;;;5067375;28;20545;-87
2023/09/15 04:20:09;;;;;;;3.50;2.83;;;13.40;99.90;;;;;;5068649;28;20517;-88
2023/09/15 04:22:38;;;;;;;4.67;4.17;;;13.40;99.90;;;;;;5067136;28;20468;-86
2023/09/15 04:25:06;;;;;;;4.87;3.77;;;13.40;99.90;;;;;;5062262;28;20496;-87
2023/09/15 04:27:33;;;;;;;4.23;3.20;;;13.40;99.90;;;;;;5061164;28;20819;-87
2023/09/15 04:30:01;;;;;;;7.10;4.40;;;13.40;99.90;;;;;;5065152;28;20494;-86
2023/09/15 04:32:28;;;;;;;4.60;4.20;;;13.40;99.90;;;;;;5063820;28;20459;-87
2023/09/15 04:34:55;;;;;;;3.97;3.50;;;13.50;99.90;;;;;;5060267;28;20823;-87
2023/09/15 04:37:23;;;;;;;5.00;3.97;;;13.50;99.90;;;;;;5058781;28;20524;-86
2023/09/15 04:39:53;;;;;;;5.27;4.77;;;13.40;99.90;;;;;;5061753;28;20495;-86
2023/09/15 04:42:21;;;;;;;6.00;4.30;;;13.40;99.90;;;;;;5060376;28;21003;-91
2023/09/15 04:44:48;;;;;;;5.53;5.00;;;13.50;99.90;;;;;;5066248;28;20439;-89
2023/09/15 04:47:29;;;;;;;5.90;3.90;;;13.40;99.90;;;;;;5061169;28;20917;-87
2023/09/15 04:49:56;;;;;;;7.00;6.30;;;13.40;99.90;;;;;;5063788;28;20576;-84
2023/09/15 04:52:23;;;;;;;7.13;5.43;;;13.40;99.90;;;;;;5064866;28;20497;-84
2023/09/15 04:54:52;;;;;;;4.90;4.37;;;13.40;99.90;;;;;;5061980;28;20580;-86
2023/09/15 04:57:20;;;;;;;5.13;4.63;;;13.40;99.90;;;;;;5066158;28;20562;-89
2023/09/15 04:59:47;;;;;;;5.77;5.33;;;13.50;99.90;;;;;;5062252;28;20573;-86
2023/09/15 05:02:14;;;;;;;7.20;5.60;;;13.40;99.90;;;;;;5065906;28;20466;-84
2023/09/15 05:04:41;;;;;;;4.53;4.00;;;13.50;99.90;;;;;;5061856;28;20524;-88
2023/09/15 05:07:08;;;;;;;7.00;5.17;;;13.50;99.90;;;;;;5062937;28;20526;-88
2023/09/15 05:09:35;;;;;;;5.40;4.60;;;13.60;99.90;;;;;;5061717;28;20811;-86
2023/09/15 05:12:04;;;;;;;6.20;5.60;;;13.60;99.90;;;;;;5065115;28;20504;-86
2023/09/15 05:14:31;;;;;;;5.97;5.30;;;13.60;99.90;;;;;;5064690;28;20819;-87
2023/09/15 05:16:58;;;;;;;5.87;4.50;;;13.60;99.90;;;;;;5065187;28;20506;-88
2023/09/15 05:19:24;;;;;;;5.77;5.20;;;13.60;99.90;;;;;;5064629;28;21050;-86
2023/09/15 05:21:52;;;;;;;5.60;4.83;;;13.70;99.90;;;;;;5065061;28;20942;-84
2023/09/15 05:24:18;;;;;;;6.03;5.10;;;13.70;99.90;;;;;;5061761;28;20547;-86
2023/09/15 05:26:45;;;;;;;6.17;5.37;;;13.80;99.90;;;;;;5062566;28;20445;-84
2023/09/15 05:29:14;;;;;;;5.47;4.20;;;13.80;99.90;;;;;;5069826;28;20456;-84
2023/09/15 05:31:41;;;;;;;5.30;4.80;;;13.80;99.90;;;;;;5082199;28;20444;-86
2023/09/15 05:34:08;;;;;;;7.17;5.87;;;13.90;99.90;;;;;;5073303;28;20534;-86
2023/09/15 05:36:35;;;;;;;6.73;5.13;;;13.90;99.90;;;;;;5075301;28;20906;-86
2023/09/15 05:39:02;;;;;;;9.07;6.20;;;13.90;99.90;;;;;;5067636;28;20502;-85
2023/09/15 05:41:29;;;;;;;5.70;4.80;;;14.00;99.90;;;;;;5068227;28;20472;-89
2023/09/15 05:43:57;;;;;;;6.20;5.60;;;14.00;99.90;;;;;;5069374;28;20974;-89
2023/09/15 05:46:25;;;;;;;10.10;7.47;;;14.10;99.90;;;;;;5066236;28;20467;-86
2023/09/15 05:48:52;;;;;;;5.30;4.80;;;14.00;99.90;;;;;;5070839;28;20455;-83
2023/09/15 05:51:19;;;;;;;4.77;4.33;;;14.10;99.90;;;;;;5063318;28;20472;-88
2023/09/15 05:53:46;;;;;;;7.70;5.20;;;14.20;99.90;;;;;;5067852;28;20537;-85
2023/09/15 05:56:13;;;;;;;7.27;5.17;;;14.20;99.90;;;;;;5066012;28;20442;-82
2023/09/15 05:58:40;;;;;;;7.43;4.90;;;14.20;99.90;;;;;;5063764;28;20552;-76
2023/09/15 06:01:07;;;;;;;5.80;5.00;;;14.30;99.90;;;;;;5066729;28;20455;-81
2023/09/15 06:03:36;;;;;;;5.80;4.93;;;14.20;99.90;;;;;;5058724;28;20463;-84
2023/09/15 06:06:03;;;;;;;6.50;5.10;;;14.30;99.90;;;;;;5063137;28;20456;-82
2023/09/15 06:08:30;;;;;;;5.03;3.73;;;14.40;99.90;;;;;;5059121;28;20840;-83
2023/09/15 06:10:58;;;;;;;6.40;5.37;;;14.50;99.90;;;;;;5058017;28;20464;-81
2023/09/15 06:13:25;;;;;;;5.93;5.33;;;14.60;99.90;;;;;;5054761;28;20527;-80
2023/09/15 06:15:52;;;;;;;5.73;4.90;;;14.60;99.90;;;;;;5056982;28;20456;-81
2023/09/15 06:18:19;;;;;;;5.30;4.73;;;14.60;99.90;;;;;;5063930;28;20541;-84
2023/09/15 06:20:48;;;;;;;5.97;5.37;;;14.80;99.90;;;;;;5055665;28;20465;-82
2023/09/15 06:23:15;;;;;;;7.23;6.50;;;14.80;99.90;;;;;;5049767;28;20502;-81
2023/09/15 06:25:44;;;;;;;6.60;5.20;;;14.80;99.90;;;;;;5061297;28;20680;-81
2023/09/15 06:28:11;;;;;;;8.10;6.30;;;14.90;99.90;;;;;;5057002;28;20463;-81
2023/09/15 06:30:38;;;;;;;8.43;5.97;;;14.80;99.90;;;;;;5059987;28;20471;-82
2023/09/15 06:33:05;;;;;;;5.90;5.30;;;14.90;99.90;;;;;;5048824;28;21070;-83
2023/09/15 06:35:32;;;;;;;17.87;6.70;;;14.80;99.90;;;;;;5056129;28;20446;-81
2023/09/15 06:38:01;;;;;;;7.87;7.07;;;14.90;99.90;;;;;;5058178;28;20474;-81
2023/09/15 06:40:28;;;;;;;8.13;6.67;;;15.00;99.90;;;;;;5064033;28;20520;-80
2023/09/15 06:42:55;;;;;;;7.67;6.87;;;15.00;99.90;;;;;;5057240;28;20516;-81
2023/09/15 06:45:22;;;;;;;6.87;6.27;;;15.00;99.90;;;;;;5066329;28;20507;-81
2023/09/15 06:47:49;;;;;;;8.50;7.70;;;15.00;99.90;;;;;;5060569;28;20443;-80
2023/09/15 06:50:16;;;;;;;8.63;7.73;;;15.00;99.90;;;;;;5066302;28;20619;-80
2023/09/15 06:52:43;;;;;;;8.07;7.40;;;15.10;99.90;;;;;;5061501;28;20450;-82
2023/09/15 06:55:11;;;;;;;7.90;7.03;;;15.10;99.90;;;;;;5072367;28;20468;-79
2023/09/15 06:57:38;;;;;;;8.20;7.60;;;15.10;99.90;;;;;;5076831;28;20446;-82
2023/09/15 07:00:06;;;;;;;14.20;9.30;;;15.10;99.90;;;;;;5068271;28;20486;-79
2023/09/15 07:02:33;;;;;;;8.60;7.30;;;15.20;99.90;;;;;;5069103;28;20552;-81
2023/09/15 07:05:00;;;;;;;14.80;9.90;;;15.20;99.90;;;;;;5067165;28;20473;-79
2023/09/15 07:07:27;;;;;;;8.87;7.47;;;15.30;99.90;;;;;;5066641;28;20443;-79
2023/09/15 07:09:54;;;;;;;8.87;7.63;;;15.40;99.90;;;;;;5060656;28;20473;-80
2023/09/15 07:12:23;;;;;;;10.87;8.13;;;15.40;99.90;;;;;;5067808;28;20483;-81
2023/09/15 07:14:50;;;;;;;7.90;6.80;;;15.50;99.90;;;;;;5067595;28;20438;-80
2023/09/15 07:17:17;;;;;;;11.60;7.33;;;15.50;99.90;;;;;;5059074;28;20956;-80
2023/09/15 07:19:46;;;;;;;11.70;7.87;;;15.40;99.90;;;;;;5065787;28;20530;-80
2023/09/15 07:22:13;;;;;;;7.50;6.80;;;15.50;99.90;;;;;;5066982;28;20508;-81
2023/09/15 07:24:41;;;;;;;6.63;5.90;;;15.50;99.90;;;;;;5056987;28;20503;-81
2023/09/15 07:27:08;;;;;;;7.90;7.00;;;15.70;99.90;;;;;;5064966;28;20545;-81
2023/09/15 07:29:37;;;;;;;8.50;6.90;;;15.70;99.90;;;;;;5060861;28;20963;-79
2023/09/15 07:32:05;;;;;;;6.67;6.03;;;15.80;99.90;;;;;;5058239;28;21058;-81
2023/09/15 07:34:32;;;;;;;8.20;7.07;;;15.90;99.90;;;;;;5058323;28;20446;-84
2023/09/15 07:37:10;;;;;;;;;;;;;;;;;;;;;
2023/09/15 07:39:37;;;;;;;7.20;5.90;;;16.20;99.90;;;;;;5057006;28;21023;-84
2023/09/15 07:42:14;;;;;;;6.63;6.03;;;16.70;99.90;;;;;;5067738;28;20443;-88
2023/09/15 07:44:44;;;;;;;7.27;6.57;;;17.00;99.90;;;;;;5063260;28;20451;-83
2023/09/15 07:47:14;;;;;;;6.50;5.90;;;17.20;99.90;;;;;;5067735;28;20487;-81
2023/09/15 07:49:41;;;;;;;6.03;5.10;;;16.80;99.90;;;;;;5068430;28;20530;-84
2023/09/15 07:52:08;;;;;;;7.10;6.60;;;17.00;99.90;;;;;;5067288;28;20468;-79
2023/09/15 07:54:36;;;;;;;6.90;5.17;;;17.40;99.90;;;;;;5065378;28;20779;-80
2023/09/15 07:57:03;;;;;;;6.73;6.03;;;17.50;99.90;;;;;;5062622;28;20467;-80
2023/09/15 07:59:30;;;;;;;8.20;6.57;;;17.40;99.90;;;;;;5065448;28;20510;-79
2023/09/15 08:02:00;;;;;;;6.70;6.10;;;17.40;99.90;;;;;;5066340;28;20453;-83
2023/09/15 08:04:28;;;;;;;6.73;6.03;;;17.50;99.90;;;;;;5063719;28;20465;-80
2023/09/15 08:06:55;;;;;;;8.37;6.40;;;17.10;99.90;;;;;;5066282;28;20448;-82
2023/09/15 08:09:21;;;;;;;7.43;6.57;;;16.90;99.90;;;;;;5061744;28;20452;-80
2023/09/15 08:11:48;;;;;;;15.07;7.87;;;16.90;99.90;;;;;;5061837;28;20517;-80
2023/09/15 08:14:15;;;;;;;6.93;6.13;;;17.20;99.90;;;;;;5074080;28;20468;-78
2023/09/15 08:16:42;;;;;;;8.60;6.10;;;17.40;99.90;;;;;;5065101;28;20501;-80
2023/09/15 08:19:10;;;;;;;7.43;6.70;;;17.50;99.90;;;;;;5062965;28;21041;-83
2023/09/15 08:21:38;;;;;;;5.60;5.10;;;17.50;99.90;;;;;;5057598;28;20506;-79
2023/09/15 08:24:06;;;;;;;7.10;6.17;;;17.60;99.90;;;;;;5067537;28;20448;-81
2023/09/15 08:26:33;;;;;;;6.73;5.97;;;17.50;99.90;;;;;;5061764;28;20792;-81
2023/09/15 08:29:00;;;;;;;6.47;5.43;;;17.60;99.90;;;;;;5067890;28;20497;-80
2023/09/15 08:31:28;;;;;;;8.93;6.10;;;17.60;99.90;;;;;;5056106;28;20463;-82
2023/09/15 08:33:55;;;;;;;7.13;5.73;;;17.50;99.90;;;;;;5051060;28;20452;-80
2023/09/15 08:36:26;;;;;;;6.20;5.60;;;17.80;99.90;;;;;;5063266;28;22018;-80
2023/09/15 08:38:53;;;;;;;5.83;5.33;;;18.00;99.90;;;;;;5059181;28;20476;-80
2023/09/15 08:41:25;;;;;;;5.50;4.90;;;18.00;99.90;;;;;;5066012;28;20456;-80
2023/09/15 08:43:52;;;;;;;5.13;4.63;;;18.00;99.90;;;;;;5064948;28;20502;-80
2023/09/15 08:46:20;;;;;;;6.13;5.07;;;17.90;99.90;;;;;;5056611;28;20861;-80
2023/09/15 08:48:51;;;;;;;7.63;5.87;;;17.90;99.90;;;;;;5064642;28;20977;-82
2023/09/15 08:51:18;;;;;;;5.27;4.77;;;18.00;99.90;;;;;;5064631;28;20912;-80
2023/09/15 08:53:47;;;;;;;6.50;5.27;;;18.20;99.90;;;;;;5064742;28;20471;-82
2023/09/15 08:56:15;;;;;;;6.20;5.70;;;18.40;99.90;;;;;;5064002;28;20465;-80
2023/09/15 08:58:43;;;;;;;6.07;5.47;;;18.40;99.90;;;;;;5065201;28;21049;-80
2023/09/15 09:01:10;;;;;;;4.90;4.50;;;18.40;99.90;;;;;;5061773;28;20785;-83
2023/09/15 09:03:38;;;;;;;5.27;4.87;;;18.40;99.90;;;;;;5064620;28;20447;-80
2023/09/15 09:06:09;;;;;;;7.13;5.27;;;18.40;99.90;;;;;;5062158;28;20490;-80
2023/09/15 09:08:38;;;;;;;7.63;5.20;;;18.40;99.90;;;;;;5062903;28;20495;-80
2023/09/15 09:11:07;;;;;;;5.37;4.90;;;18.60;99.90;;;;;;5068409;28;20450;-80
2023/09/15 09:13:34;;;;;;;6.00;5.40;;;18.80;99.90;;;;;;5064985;28;20940;-80
2023/09/15 09:16:02;;;;;;;5.00;4.33;;;19.10;99.90;;;;;;5057295;28;20470;-80
2023/09/15 09:18:29;;;;;;;8.00;5.00;;;19.20;99.90;;;;;;5059463;28;20456;-81
2023/09/15 09:20:56;;;;;;;5.67;5.17;;;19.40;99.90;;;;;;5068008;28;20922;-81
2023/09/15 09:23:23;;;;;;;5.97;5.40;;;19.60;99.90;;;;;;5066056;28;20467;-81
2023/09/15 09:25:50;;;;;;;3.63;3.40;;;19.60;99.90;;;;;;5057534;28;20445;-80
2023/09/15 09:28:19;;;;;;;5.17;4.67;;;19.80;99.90;;;;;;5062808;28;20459;-80
2023/09/15 09:30:46;;;;;;;6.00;4.60;;;19.80;99.90;;;;;;5069831;28;20489;-81
2023/09/15 09:33:13;;;;;;;5.87;3.93;;;19.90;99.90;;;;;;5061783;28;20514;-80
2023/09/15 09:35:40;;;;;;;5.50;4.30;;;19.90;99.90;;;;;;5069727;28;20456;-81
2023/09/15 09:38:07;;;;;;;5.37;4.87;;;19.70;99.90;;;;;;5084492;28;20458;-79
2023/09/15 09:40:36;;;;;;;4.43;3.33;;;19.70;99.90;;;;;;5077649;28;20540;-80
2023/09/15 09:43:04;;;;;;;4.87;4.23;;;19.60;99.90;;;;;;5068125;28;20447;-80
2023/09/15 09:45:32;;;;;;;5.70;4.73;;;19.60;99.90;;;;;;5061236;28;20947;-80
2023/09/15 09:48:01;;;;;;;5.17;4.67;;;19.60;99.90;;;;;;5063875;28;20948;-80
2023/09/15 09:50:28;;;;;;;3.87;3.50;;;19.80;99.90;;;;;;5066752;28;20523;-80
2023/09/15 09:52:56;;;;;;;3.70;3.40;;;19.70;99.90;;;;;;5064627;28;20510;-81
2023/09/15 09:55:25;;;;;;;3.80;3.50;;;19.60;99.90;;;;;;5065729;28;21028;-80
2023/09/15 09:57:52;;;;;;;6.27;3.77;;;19.70;99.90;;;;;;5074577;28;20970;-80
2023/09/15 10:00:21;;;;;;;5.60;5.10;;;19.80;99.90;;;;;;5056788;28;20503;-81
2023/09/15 10:02:50;;;;;;;3.63;2.73;;;20.00;99.90;;;;;;5060662;28;20491;-81
2023/09/15 10:05:17;;;;;;;15.43;3.53;;;19.90;99.90;;;;;;5062521;28;20509;-81
2023/09/15 10:07:47;;;;;;;2.90;2.70;;;20.00;99.90;;;;;;5059391;28;20474;-81
2023/09/15 10:10:14;;;;;;;4.57;2.63;;;20.10;99.90;;;;;;5070014;28;20942;-80
2023/09/15 10:12:42;;;;;;;2.57;2.37;;;20.20;99.90;;;;;;5068911;28;20454;-82
2023/09/15 10:15:12;;;;;;;2.47;2.33;;;20.10;99.90;;;;;;5054085;28;20452;-81
2023/09/15 10:17:39;;;;;;;2.10;2.00;;;20.10;99.90;;;;;;5067115;28;20502;-79
2023/09/15 10:20:10;;;;;;;3.93;2.90;;;20.30;99.90;;;;;;5061912;28;20483;-80
2023/09/15 10:22:38;;;;;;;2.20;2.00;;;20.30;99.90;;;;;;5066902;28;20519;-80
2023/09/15 10:25:06;;;;;;;3.27;2.47;;;20.40;99.90;;;;;;5055698;28;20466;-80
2023/09/15 10:27:34;;;;;;;3.43;2.67;;;20.50;99.90;;;;;;5060112;28;20528;-81
2023/09/15 10:30:04;;;;;;;1.70;1.60;;;20.60;99.90;;;;;;5064581;28;20542;-80
2023/09/15 10:32:36;;;;;;;2.17;1.53;;;20.70;99.90;;;;;;5055648;28;20504;-80
2023/09/15 10:35:04;;;;;;;2.60;2.40;;;20.60;99.90;;;;;;5063865;28;20542;-80
2023/09/15 10:37:33;;;;;;;3.40;2.00;;;20.70;99.90;;;;;;5059752;28;20463;-82
2023/09/15 10:40:00;;;;;;;1.37;1.10;;;20.80;99.90;;;;;;5063262;28;20936;-80
2023/09/15 10:42:27;;;;;;;2.47;2.27;;;21.00;99.90;;;;;;5059706;28;20447;-80
2023/09/15 10:44:54;;;;;;;3.50;1.50;;;21.10;99.90;;;;;;5066274;28;20732;-81
2023/09/15 10:47:22;;;;;;;4.00;1.80;;;20.90;99.90;;;;;;5055331;28;20444;-80
2023/09/15 10:49:51;;;;;;;1.43;1.33;;;21.30;99.90;;;;;;5063800;28;20536;-81
2023/09/15 10:52:18;;;;;;;2.40;1.50;;;21.20;99.90;;;;;;5068534;28;20456;-80
2023/09/15 10:54:49;;;;;;;3.23;1.53;;;21.00;99.90;;;;;;5063284;28;20518;-82
2023/09/15 10:57:17;;;;;;;1.77;1.20;;;21.00;99.90;;;;;;5058658;28;20646;-80
2023/09/15 10:59:44;;;;;;;1.73;1.63;;;21.00;99.90;;;;;;5061544;28;20460;-80
2023/09/15 11:02:12;;;;;;;2.13;1.80;;;21.20;99.90;;;;;;5072255;28;21448;-80
2023/09/15 11:04:39;;;;;;;1.40;1.30;;;21.20;99.90;;;;;;5079667;28;20973;-80
2023/09/15 11:07:07;;;;;;;3.93;1.53;;;21.40;99.90;;;;;;5061830;28;20506;-80
2023/09/15 11:09:35;;;;;;;2.13;1.20;;;21.50;99.90;;;;;;5067339;28;20480;-80
2023/09/15 11:12:04;;;;;;;2.30;1.40;;;21.60;99.90;;;;;;5059615;28;20449;-83
2023/09/15 11:14:31;;;;;;;3.20;1.80;;;21.70;99.90;;;;;;5062773;28;20630;-80
2023/09/15 11:16:58;;;;;;;3.17;1.23;;;21.80;99.90;;;;;;5067016;28;20532;-80
2023/09/15 11:19:30;;;;;;;2.07;1.90;;;21.90;99.90;;;;;;5063924;28;20473;-81
2023/09/15 11:21:57;;;;;;;3.27;1.83;;;21.90;99.90;;;;;;5063048;28;20494;-81
2023/09/15 11:24:24;;;;;;;3.13;1.83;;;21.80;99.90;;;;;;5063458;28;20460;-80
2023/09/15 11:26:52;;;;;;;1.70;1.60;;;21.70;99.90;;;;;;5062804;28;20514;-81
2023/09/15 11:29:25;;;;;;;2.53;2.30;;;21.60;99.90;;;;;;5065376;28;20974;-83
2023/09/15 11:31:53;;;;;;;2.17;1.63;;;21.70;99.90;;;;;;5065994;28;20498;-80
2023/09/15 11:34:21;;;;;;;1.90;1.80;;;21.90;99.90;;;;;;5067392;28;20498;-83
2023/09/15 11:36:48;;;;;;;2.23;2.13;;;21.80;99.90;;;;;;5059418;28;20452;-81
2023/09/15 11:39:16;;;;;;;1.40;1.30;;;21.90;99.90;;;;;;5065893;28;20963;-82
2023/09/15 11:41:52;;;;;;;2.10;1.60;;;21.80;99.90;;;;;;5059853;28;20576;-80
2023/09/15 11:44:21;;;;;;;3.17;1.83;;;21.90;99.90;;;;;;5064075;28;20958;-82
2023/09/15 11:46:49;;;;;;;4.53;1.33;;;21.60;99.90;;;;;;5062526;28;20472;-81
2023/09/15 11:49:18;;;;;;;2.40;1.70;;;21.50;99.90;;;;;;5063346;28;20507;-83
2023/09/15 11:51:46;;;;;;;1.20;1.10;;;21.60;99.90;;;;;;5060518;28;21017;-80
2023/09/15 11:54:13;;;;;;;1.47;1.13;;;21.50;99.90;;;;;;5064059;28;20440;-81
2023/09/15 11:56:40;;;;;;;1.53;1.43;;;21.70;99.90;;;;;;5062856;28;20439;-81
2023/09/15 11:59:07;;;;;;;1.33;1.07;;;21.80;99.90;;;;;;5063090;28;20444;-82
2023/09/15 12:01:36;;;;;;;1.63;1.40;;;21.80;99.90;;;;;;5058483;28;20975;-81
2023/09/15 12:04:04;;;;;;;1.30;1.20;;;22.00;99.90;;;;;;5063611;28;20859;-82
2023/09/15 12:06:32;;;;;;;1.47;1.37;;;22.00;99.90;;;;;;5061585;28;20539;-83
2023/09/15 12:08:59;;;;;;;1.60;1.50;;;21.90;99.90;;;;;;5066807;28;20502;-83
2023/09/15 12:11:26;;;;;;;4.20;1.63;;;21.80;99.90;;;;;;5055017;28;20538;-81
2023/09/15 12:13:54;;;;;;;1.20;1.10;;;22.00;99.90;;;;;;5063541;28;20786;-81
2023/09/15 12:16:26;;;;;;;1.77;1.67;;;21.90;99.90;;;;;;5059915;28;20447;-82
2023/09/15 12:18:55;;;;;;;1.60;1.50;;;22.00;99.90;;;;;;5061373;28;20443;-81
2023/09/15 12:21:24;;;;;;;2.30;1.70;;;22.00;99.90;;;;;;5055174;28;20915;-81
2023/09/15 12:23:54;;;;;;;1.50;1.40;;;21.90;99.90;;;;;;5065387;28;20460;-81
2023/09/15 12:26:21;;;;;;;2.60;1.73;;;21.90;99.90;;;;;;5070901;28;20436;-82
2023/09/15 12:28:48;;;;;;;1.50;1.40;;;22.10;99.90;;;;;;5082366;28;20554;-80
2023/09/15 12:31:17;;;;;;;1.60;1.50;;;21.90;99.90;;;;;;5059483;28;20451;-80
2023/09/15 12:33:44;;;;;;;1.60;1.50;;;22.10;99.90;;;;;;5067231;28;20444;-80
2023/09/15 12:36:13;;;;;;;1.93;0.90;;;22.20;99.90;;;;;;5055071;28;20469;-81
2023/09/15 12:38:40;;;;;;;1.73;1.63;;;22.10;99.90;;;;;;5066096;28;20531;-82
2023/09/15 12:41:08;;;;;;;1.10;1.00;;;22.00;99.90;;;;;;5065674;28;20553;-82
2023/09/15 12:43:35;;;;;;;1.20;1.10;;;22.10;99.90;;;;;;5066698;28;20455;-80
2023/09/15 12:46:03;;;;;;;1.60;1.50;;;22.00;99.90;;;;;;5055707;28;20460;-81
2023/09/15 12:48:30;;;;;;;2.63;1.37;;;21.90;99.90;;;;;;5060934;28;20486;-83
2023/09/15 12:50:57;;;;;;;1.40;1.30;;;22.10;99.90;;;;;;5055684;28;20609;-81